Downstream station:
SHEF ID: CHTM7 Spring River at Carthage, MO
STATION TYPE:
PRECIP STAGE RIV-FLOW
in ft cfs
Ccp-Rev Ccp-Rev Ccp-Rev
(US/Central)
03/30 00:00 0.00 4.03 544
03/30 01:00 0.00 4.03 544
03/30 02:00 0.00 4.03 544
03/30 03:00 0.00 4.02 538
03/30 04:00 0.01 4.02 538
03/30 05:00 0.04 4.03 544
03/30 06:00 0.05 4.06 562
03/30 07:00 0.04 4.04 550
03/30 08:00 0.04 4.05 556
03/30 09:00 0.03 4.04 550
03/30 10:00 0.02 4.03 544
03/30 11:00 0.01 4.03 544
03/30 12:00 0.00 4.03 544
03/30 13:00 0.01 4.03 544
03/30 14:00 0.03 4.07 568
03/30 15:00 0.04 4.06 562
03/30 16:00 0.03 4.07 568
03/30 17:00 0.03 4.06 562
03/30 18:00 0.03 4.07 568
03/30 19:00 0.02 4.07 568
03/30 20:00 0.03 4.07 568
03/30 21:00 0.01 4.06 562
03/30 22:00 0.02 4.07 568
03/30 23:00 ---- ---- ----